createdAt,value
2023-03-25T00:01:15.071Z,96769.00
2023-03-25T00:03:44.975Z,96769.42
2023-03-25T00:06:13.877Z,96766.05
2023-03-25T00:08:41.528Z,96768.03
2023-03-25T00:11:09.094Z,96766.47
2023-03-25T00:13:36.794Z,96761.67
2023-03-25T00:16:06.638Z,96750.40
2023-03-25T00:18:34.936Z,96749.06
2023-03-25T00:21:12.631Z,96746.37
2023-03-25T00:23:41.130Z,96745.52
2023-03-25T00:26:29.613Z,96747.52
2023-03-25T00:29:00.545Z,96739.39
2023-03-25T00:31:28.312Z,96736.54
2023-03-25T00:33:57.606Z,96741.00
2023-03-25T00:36:25.472Z,96736.89
2023-03-25T00:38:53.141Z,96735.00
2023-03-25T00:41:26.585Z,96736.34
2023-03-25T00:44:00.169Z,96735.34
2023-03-25T00:46:32.317Z,96732.66
2023-03-25T00:49:01.031Z,96722.24
2023-03-25T00:51:33.540Z,96723.14
2023-03-25T00:54:01.657Z,96721.47
2023-03-25T00:56:30.891Z,96724.14
2023-03-25T00:58:58.673Z,96721.69
2023-03-25T01:01:28.912Z,96720.81
2023-03-25T01:03:59.729Z,96719.95
2023-03-25T01:06:35.182Z,96714.25
2023-03-25T01:09:06.213Z,96712.82
2023-03-25T01:11:37.182Z,96709.80
2023-03-25T01:14:09.466Z,96698.52
2023-03-25T01:16:37.977Z,96696.09
2023-03-25T01:19:05.830Z,96689.48
2023-03-25T01:21:35.310Z,96691.94
2023-03-25T01:24:07.832Z,96684.86
2023-03-25T01:26:36.214Z,96684.98
2023-03-25T01:29:05.768Z,96677.81
2023-03-25T01:31:34.099Z,96686.19
2023-03-25T01:34:01.750Z,96692.08
2023-03-25T01:36:29.867Z,96690.08
2023-03-25T01:38:59.255Z,96682.12
2023-03-25T01:41:39.089Z,96678.42
2023-03-25T01:44:10.051Z,96670.37
2023-03-25T01:46:45.006Z,96653.53
2023-03-25T01:49:17.535Z,96643.16
2023-03-25T01:51:45.850Z,96650.84
2023-03-25T01:54:16.926Z,96652.19
2023-03-25T01:56:47.143Z,96649.51
2023-03-25T01:59:18.443Z,96645.83
2023-03-25T02:01:47.028Z,96638.58
2023-03-25T02:04:21.312Z,96638.23
2023-03-25T02:06:53.217Z,96642.50
2023-03-25T02:09:24.476Z,96648.30
2023-03-25T02:11:54.037Z,96640.17
2023-03-25T02:14:27.107Z,96630.14
2023-03-25T02:17:12.285Z,96619.64
2023-03-25T02:20:05.726Z,96614.75
2023-03-25T02:23:09.141Z,96615.53
2023-03-25T02:26:18.922Z,96618.34
2023-03-25T02:29:03.130Z,96617.78
2023-03-25T02:31:58.378Z,96617.78
2023-03-25T02:34:43.633Z,96614.10
2023-03-25T02:37:41.062Z,96613.30
2023-03-25T02:40:14.426Z,96610.61
2023-03-25T02:43:05.299Z,96610.17
2023-03-25T02:45:39.196Z,96610.95
2023-03-25T02:48:18.163Z,96612.52
2023-03-25T02:50:53.422Z,96611.86
2023-03-25T02:53:29.783Z,96607.97
2023-03-25T02:56:10.387Z,96606.53
2023-03-25T02:58:41.350Z,96607.44
2023-03-25T03:01:09.781Z,96599.86
2023-03-25T03:03:37.459Z,96598.17
2023-03-25T03:06:07.112Z,96605.34
2023-03-25T03:09:13.752Z,96602.54
2023-03-25T03:12:16.805Z,96601.66
2023-03-25T03:15:18.816Z,96590.16
2023-03-25T03:18:07.463Z,96591.28
2023-03-25T03:21:00.692Z,96589.38
2023-03-25T03:23:33.346Z,96593.97
2023-03-25T03:26:12.086Z,96593.50
2023-03-25T03:28:57.265Z,96595.63
2023-03-25T03:31:48.474Z,96595.50
2023-03-25T03:34:24.023Z,96596.63
2023-03-25T03:36:54.927Z,96592.91
2023-03-25T03:39:39.189Z,96595.38
2023-03-25T03:42:18.492Z,96588.45
2023-03-25T03:44:53.494Z,96595.72
2023-03-25T03:47:25.707Z,96594.25
2023-03-25T03:49:58.954Z,96595.59
2023-03-25T03:52:44.738Z,96595.91
2023-03-25T03:55:18.794Z,96597.80
2023-03-25T03:57:52.018Z,96606.31
2023-03-25T04:00:27.006Z,96613.55
2023-03-25T04:03:22.229Z,96609.98
2023-03-25T04:06:06.381Z,96608.09
2023-03-25T04:08:56.661Z,96605.09
2023-03-25T04:11:43.649Z,96604.29
2023-03-25T04:14:13.436Z,96603.76
2023-03-25T04:16:43.506Z,96594.59
2023-03-25T04:19:16.756Z,96592.70
2023-03-25T04:21:47.392Z,96591.02
2023-03-25T04:24:19.113Z,96589.58
2023-03-25T04:26:47.269Z,96591.70
2023-03-25T04:29:15.304Z,96597.98
2023-03-25T04:31:44.954Z,96592.50
2023-03-25T04:34:14.371Z,96598.11
2023-03-25T04:36:46.260Z,96594.31
2023-03-25T04:39:15.701Z,96595.02
2023-03-25T04:41:43.698Z,96598.50
2023-03-25T04:44:12.095Z,96606.89
2023-03-25T04:46:40.882Z,96604.55
2023-03-25T04:49:20.486Z,96596.86
2023-03-25T04:51:52.346Z,96586.69
2023-03-25T04:54:22.895Z,96588.83
2023-03-25T04:56:51.896Z,96590.50
2023-03-25T04:59:20.944Z,96585.71
2023-03-25T05:01:49.304Z,96579.89
2023-03-25T05:04:18.265Z,96582.69
2023-03-25T05:06:50.009Z,96588.84
2023-03-25T05:09:22.475Z,96586.49
2023-03-25T05:11:53.153Z,96579.12
2023-03-25T05:14:22.362Z,96588.17
2023-03-25T05:16:50.645Z,96589.87
2023-03-25T05:19:19.739Z,96584.16
2023-03-25T05:21:48.165Z,96580.58
2023-03-25T05:24:16.203Z,96588.39
2023-03-25T05:26:44.096Z,96583.02
2023-03-25T05:29:14.590Z,96587.30
2023-03-25T05:31:45.406Z,96586.95
2023-03-25T05:34:14.079Z,96585.60
2023-03-25T05:36:42.248Z,96593.34
2023-03-25T05:39:10.528Z,96596.66
2023-03-25T05:41:38.381Z,96590.20
2023-03-25T05:44:07.906Z,96593.09
2023-03-25T05:46:35.939Z,96596.45
2023-03-25T05:49:04.126Z,96605.39
2023-03-25T05:51:36.026Z,96606.63
2023-03-25T05:54:06.608Z,96606.74
2023-03-25T05:56:36.167Z,96607.41
2023-03-25T05:59:04.428Z,96610.53
2023-03-25T06:01:33.679Z,96613.67
2023-03-25T06:04:03.619Z,96609.29
2023-03-25T06:06:33.553Z,96610.88
2023-03-25T06:09:02.491Z,96608.63
2023-03-25T06:11:30.790Z,96597.55
2023-03-25T06:13:59.384Z,96599.11
2023-03-25T06:16:30.306Z,96611.77
2023-03-25T06:19:02.003Z,96609.29
2023-03-25T06:21:34.000Z,96609.19
2023-03-25T06:24:02.259Z,96607.06
2023-03-25T06:26:30.191Z,96607.84
2023-03-25T06:28:58.161Z,96599.54
2023-03-25T06:31:27.147Z,96605.83
2023-03-25T06:33:56.282Z,96601.80
2023-03-25T06:36:25.135Z,96603.14
2023-03-25T06:38:54.020Z,96606.60
2023-03-25T06:41:24.806Z,96601.09
2023-03-25T06:43:57.102Z,96600.19
2023-03-25T06:46:42.985Z,96594.56
2023-03-25T06:49:12.740Z,96584.87
2023-03-25T06:51:40.592Z,96584.69
2023-03-25T06:54:08.562Z,96582.20
2023-03-25T06:56:36.381Z,96575.73
2023-03-25T06:59:05.521Z,96568.88
2023-03-25T07:01:33.442Z,96577.66
2023-03-25T07:04:01.391Z,96585.11
2023-03-25T07:06:29.282Z,96579.14
2023-03-25T07:08:56.865Z,96575.02
2023-03-25T07:11:30.796Z,96570.19
2023-03-25T07:13:58.497Z,96553.14
2023-03-25T07:16:27.342Z,96565.00
2023-03-25T07:18:56.282Z,96564.24
2023-03-25T07:21:26.883Z,96569.55
2023-03-25T07:24:04.244Z,96577.97
2023-03-25T07:26:41.275Z,96576.61
2023-03-25T07:29:14.877Z,96583.97
2023-03-25T07:31:42.841Z,96573.50
2023-03-25T07:34:10.608Z,96573.86
2023-03-25T07:36:38.482Z,96586.42
2023-03-25T07:39:07.417Z,96579.95
2023-03-25T07:41:35.120Z,96572.73
2023-03-25T07:44:11.114Z,96580.42
2023-03-25T07:46:40.695Z,96579.43
2023-03-25T07:49:08.357Z,96572.42
2023-03-25T07:51:36.058Z,96563.19
2023-03-25T07:54:04.791Z,96570.02
2023-03-25T07:56:33.263Z,96571.56
2023-03-25T07:59:00.929Z,96574.64
2023-03-25T08:01:28.530Z,96575.02
2023-03-25T08:03:56.639Z,96573.26
2023-03-25T08:06:24.198Z,96574.86
2023-03-25T08:08:51.793Z,96576.83
2023-03-25T08:11:19.454Z,96575.51
2023-03-25T08:13:47.128Z,96573.42
2023-03-25T08:16:15.739Z,96565.88
2023-03-25T08:18:44.625Z,96563.20
2023-03-25T08:21:18.660Z,96562.80
2023-03-25T08:23:47.143Z,96556.37
2023-03-25T08:26:15.840Z,96554.77
2023-03-25T08:28:43.596Z,96556.69
2023-03-25T08:31:11.727Z,96544.77
2023-03-25T08:33:41.363Z,96555.28
2023-03-25T08:36:12.921Z,96552.57
2023-03-25T08:38:41.484Z,96553.16
2023-03-25T08:41:09.029Z,96559.41
2023-03-25T08:43:36.716Z,96560.03
2023-03-25T08:46:04.806Z,96560.99
2023-03-25T08:48:37.960Z,96564.91
2023-03-25T08:51:06.439Z,96568.59
2023-03-25T08:53:34.162Z,96571.50
2023-03-25T08:56:01.920Z,96575.20
2023-03-25T08:58:29.805Z,96570.70
2023-03-25T09:00:58.076Z,96573.05
2023-03-25T09:03:27.397Z,96568.77
2023-03-25T09:05:55.666Z,96572.69
2023-03-25T09:08:23.913Z,96569.22
2023-03-25T09:10:51.814Z,96568.63
2023-03-25T09:13:19.432Z,96563.02
2023-03-25T09:15:47.386Z,96564.16
2023-03-25T09:18:15.333Z,96565.33
2023-03-25T09:20:43.086Z,96570.94
2023-03-25T09:23:11.405Z,96564.52
2023-03-25T09:25:39.122Z,96566.26
2023-03-25T09:28:07.056Z,96554.96
2023-03-25T09:30:35.155Z,96556.91
2023-03-25T09:33:03.555Z,96569.74
2023-03-25T09:35:31.544Z,96556.91
2023-03-25T09:37:59.275Z,96556.30
2023-03-25T09:40:27.333Z,96565.25
2023-03-25T09:43:33.014Z,96555.52
2023-03-25T09:46:01.145Z,96561.52
2023-03-25T09:48:39.428Z,96564.82
2023-03-25T09:51:26.800Z,96563.66
2023-03-25T09:54:05.881Z,96560.19
2023-03-25T09:56:42.196Z,96555.53
2023-03-25T09:59:22.822Z,96551.45
2023-03-25T10:02:27.630Z,96557.48
2023-03-25T10:05:32.755Z,96545.59
2023-03-25T10:08:12.903Z,96549.70
2023-03-25T10:10:54.539Z,96542.06
2023-03-25T10:13:56.461Z,96537.02
2023-03-25T10:16:57.196Z,96542.66
2023-03-25T10:19:33.028Z,96542.31
2023-03-25T10:22:15.556Z,96550.86
2023-03-25T10:24:51.786Z,96550.13
2023-03-25T10:27:41.554Z,96553.47
2023-03-25T10:30:17.716Z,96545.14
2023-03-25T10:32:53.718Z,96553.70
2023-03-25T10:35:38.036Z,96552.47
2023-03-25T10:38:23.692Z,96550.67
2023-03-25T10:40:54.116Z,96555.82
2023-03-25T10:43:35.007Z,96559.79
2023-03-25T10:46:37.139Z,96537.89
2023-03-25T10:49:05.151Z,96547.77
2023-03-25T10:51:36.267Z,96544.23
2023-03-25T10:54:04.208Z,96544.35
2023-03-25T10:56:40.180Z,96542.13
2023-03-25T10:59:37.059Z,96540.28
2023-03-25T11:02:15.474Z,96537.85
2023-03-25T11:04:46.106Z,96536.12
2023-03-25T11:07:25.761Z,96538.67
2023-03-25T11:09:53.507Z,96539.50
2023-03-25T11:12:33.334Z,96538.39
2023-03-25T11:14:57.164Z,96526.84
2023-03-25T11:17:27.061Z,96530.24
2023-03-25T11:20:07.198Z,96526.69
2023-03-25T11:22:38.215Z,96520.38
2023-03-25T11:25:19.814Z,96520.25
2023-03-25T11:28:01.484Z,96518.44
2023-03-25T11:30:29.346Z,96522.83
2023-03-25T11:33:12.391Z,96512.50
2023-03-25T11:35:44.144Z,96511.83
2023-03-25T11:38:22.941Z,96514.64
2023-03-25T11:40:59.187Z,96516.91
2023-03-25T11:43:32.397Z,96513.20
2023-03-25T11:46:13.072Z,96504.80
2023-03-25T11:48:44.106Z,96502.05
2023-03-25T11:51:23.172Z,96490.66
2023-03-25T11:54:04.858Z,96489.00
2023-03-25T11:56:39.540Z,96490.03
2023-03-25T11:59:27.202Z,96485.41
2023-03-25T12:02:21.122Z,96490.43
2023-03-25T12:05:16.021Z,96484.48
2023-03-25T12:07:48.056Z,96481.78
2023-03-25T12:10:46.367Z,96480.83
2023-03-25T12:13:37.766Z,96478.75
2023-03-25T12:16:30.904Z,96473.59
2023-03-25T12:19:21.957Z,96476.29
2023-03-25T12:22:31.919Z,96473.44
2023-03-25T12:25:11.605Z,96469.00
2023-03-25T12:28:04.801Z,96472.66
2023-03-25T12:31:07.170Z,96473.44
2023-03-25T12:33:55.169Z,96464.55
2023-03-25T12:36:43.455Z,96467.26
2023-03-25T12:39:53.046Z,96462.25
2023-03-25T12:42:44.451Z,96464.55
2023-03-25T12:45:45.417Z,96461.12
2023-03-25T12:48:37.064Z,96461.32
2023-03-25T12:51:21.967Z,96451.81
2023-03-25T12:54:26.099Z,96452.55
2023-03-25T12:57:02.011Z,96447.92
2023-03-25T13:00:10.534Z,96446.98
2023-03-25T13:03:12.773Z,96444.14
2023-03-25T13:05:57.784Z,96441.83
2023-03-25T13:08:57.918Z,96440.17
2023-03-25T13:11:36.981Z,96438.59
2023-03-25T13:14:13.376Z,96435.16
2023-03-25T13:16:44.508Z,96433.41
2023-03-25T13:19:22.795Z,96431.06
2023-03-25T13:21:57.697Z,96425.45
2023-03-25T13:24:39.978Z,96428.52
2023-03-25T13:27:11.112Z,96426.77
2023-03-25T13:29:43.695Z,96421.71
2023-03-25T13:32:25.252Z,96422.52
2023-03-25T13:34:58.593Z,96419.97
2023-03-25T13:37:43.876Z,96423.02
2023-03-25T13:40:28.408Z,96413.95
2023-03-25T13:43:43.446Z,96418.37
2023-03-25T13:46:19.989Z,96416.80
2023-03-25T13:48:58.517Z,96416.98
2023-03-25T13:51:27.065Z,96417.76
2023-03-25T13:54:02.991Z,96416.41
2023-03-25T13:57:01.415Z,96403.71
2023-03-25T13:59:59.666Z,96414.28
2023-03-25T14:02:41.002Z,96419.30
2023-03-25T14:05:34.220Z,96413.48
2023-03-25T14:08:30.087Z,96420.66
2023-03-25T14:11:18.669Z,96418.37
2023-03-25T14:14:05.090Z,96414.09
2023-03-25T14:16:44.680Z,96423.41
2023-03-25T14:19:17.794Z,96422.25
2023-03-25T14:21:52.559Z,96424.17
2023-03-25T14:24:31.453Z,96420.70
2023-03-25T14:27:07.373Z,96415.49
2023-03-25T14:29:43.558Z,96422.62
2023-03-25T14:32:23.091Z,96423.59
2023-03-25T14:34:50.809Z,96426.87
2023-03-25T14:37:27.023Z,96427.26
2023-03-25T14:40:00.587Z,96426.48
2023-03-25T14:42:42.064Z,96430.11
2023-03-25T14:45:36.414Z,96433.97
2023-03-25T14:48:19.366Z,96448.98
2023-03-25T14:50:42.483Z,96450.01
2023-03-25T14:53:13.021Z,96458.22
2023-03-25T14:55:47.759Z,96462.22
2023-03-25T14:58:25.293Z,96462.47
2023-03-25T15:01:00.016Z,96463.47
2023-03-25T15:03:33.240Z,96460.41
2023-03-25T15:06:02.176Z,96457.60
2023-03-25T15:08:37.666Z,96462.89
2023-03-25T15:11:12.693Z,96459.91
2023-03-25T15:13:50.276Z,96458.73
2023-03-25T15:16:28.975Z,96466.83
2023-03-25T15:19:02.092Z,96458.88
2023-03-25T15:21:54.586Z,96468.78
2023-03-25T15:24:32.035Z,96458.08
2023-03-25T15:27:07.948Z,96452.56
2023-03-25T15:30:15.862Z,96457.52
2023-03-25T15:33:19.442Z,96452.30
2023-03-25T15:36:19.138Z,96469.77
2023-03-25T15:39:06.907Z,96459.52
2023-03-25T15:42:20.474Z,96463.57
2023-03-25T15:45:00.104Z,96474.30
2023-03-25T15:47:38.846Z,96478.66
2023-03-25T15:50:21.620Z,96480.28
2023-03-25T15:52:57.480Z,96478.09
2023-03-25T15:55:42.617Z,96485.27
2023-03-25T15:58:28.079Z,96488.88
2023-03-25T16:01:02.062Z,96494.50
2023-03-25T16:03:31.008Z,96494.50
2023-03-25T16:06:03.078Z,96491.06
2023-03-25T16:08:38.846Z,96496.69
2023-03-25T16:11:24.742Z,96501.24
2023-03-25T16:14:17.126Z,96495.55
2023-03-25T16:16:56.114Z,96500.10
2023-03-25T16:19:41.497Z,96504.59
2023-03-25T16:22:28.759Z,96503.17
2023-03-25T16:25:01.212Z,96502.23
2023-03-25T16:27:36.430Z,96507.89
2023-03-25T16:30:24.373Z,96505.69
2023-03-25T16:32:52.707Z,96504.28
2023-03-25T16:35:26.347Z,96510.94
2023-03-25T16:37:58.049Z,96499.45
2023-03-25T16:40:31.123Z,96503.62
2023-03-25T16:43:10.201Z,96505.70
2023-03-25T16:45:38.736Z,96516.16
2023-03-25T16:48:11.165Z,96513.27
2023-03-25T16:50:40.030Z,96509.72
2023-03-25T16:53:09.892Z,96519.48
2023-03-25T16:55:56.244Z,96518.87
2023-03-25T16:58:27.260Z,96527.86
2023-03-25T17:01:03.291Z,96525.45
2023-03-25T17:03:46.979Z,96533.86
2023-03-25T17:06:28.808Z,96525.58
2023-03-25T17:08:59.481Z,96531.87
2023-03-25T17:11:30.455Z,96535.50
2023-03-25T17:14:02.559Z,96536.97
2023-03-25T17:16:33.074Z,96541.34
2023-03-25T17:19:02.268Z,96548.08
2023-03-25T17:21:33.991Z,96551.91
2023-03-25T17:24:10.084Z,96553.25
2023-03-25T17:26:55.581Z,96553.25
2023-03-25T17:29:25.363Z,96554.19
2023-03-25T17:31:58.618Z,96557.78
2023-03-25T17:34:27.319Z,96561.61
2023-03-25T17:37:00.616Z,96563.30
2023-03-25T17:39:31.796Z,96560.19
2023-03-25T17:42:13.892Z,96552.67
2023-03-25T17:44:44.870Z,96556.92
2023-03-25T17:47:18.083Z,96543.80
2023-03-25T17:49:46.109Z,96546.64
2023-03-25T17:52:13.602Z,96542.94
2023-03-25T17:54:41.400Z,96542.28
2023-03-25T17:57:17.972Z,96549.94
2023-03-25T17:59:46.671Z,96556.23
2023-03-25T18:02:16.974Z,96561.73
2023-03-25T18:04:45.015Z,96560.19
2023-03-25T18:07:12.532Z,96559.20
2023-03-25T18:09:40.742Z,96567.84
2023-03-25T18:12:09.789Z,96561.56
2023-03-25T18:14:37.636Z,96572.91
2023-03-25T18:17:05.424Z,96571.47
2023-03-25T18:19:33.943Z,96570.48
2023-03-25T18:22:09.918Z,96569.26
2023-03-25T18:24:33.363Z,96569.05
2023-03-25T18:27:03.043Z,96572.88
2023-03-25T18:29:31.117Z,96578.27
2023-03-25T18:32:00.865Z,96573.42
2023-03-25T18:34:28.587Z,96583.85
2023-03-25T18:36:57.283Z,96585.20
2023-03-25T18:39:27.471Z,96584.98
2023-03-25T18:41:54.990Z,96589.92
2023-03-25T18:44:23.212Z,96586.94
2023-03-25T18:46:50.895Z,96586.94
2023-03-25T18:49:19.844Z,96594.56
2023-03-25T18:51:48.028Z,96589.75
2023-03-25T18:54:16.161Z,96587.27
2023-03-25T18:56:44.543Z,96579.55
2023-03-25T18:59:18.002Z,96581.67
2023-03-25T19:01:46.722Z,96573.16
2023-03-25T19:04:14.386Z,96573.72
2023-03-25T19:06:42.475Z,96570.16
2023-03-25T19:09:16.987Z,96576.35
2023-03-25T19:11:44.812Z,96574.50
2023-03-25T19:14:12.522Z,96568.58
2023-03-25T19:16:50.775Z,96560.00
2023-03-25T19:19:13.537Z,96553.87
2023-03-25T19:21:43.634Z,96557.44
2023-03-25T19:24:10.964Z,96558.18
2023-03-25T19:26:39.032Z,96556.19
2023-03-25T19:29:08.167Z,96558.90
2023-03-25T19:31:35.780Z,96557.36
2023-03-25T19:34:03.786Z,96552.23
2023-03-25T19:36:33.415Z,96551.92
2023-03-25T19:39:09.447Z,96548.13
2023-03-25T19:41:39.098Z,96552.62
2023-03-25T19:44:06.704Z,96553.30
2023-03-25T19:46:34.986Z,96554.21
2023-03-25T19:49:02.907Z,96551.28
2023-03-25T19:51:31.279Z,96555.55
2023-03-25T19:53:59.177Z,96554.98
2023-03-25T19:56:27.108Z,96555.77
2023-03-25T19:58:55.142Z,96552.30
2023-03-25T20:01:22.990Z,96551.53
2023-03-25T20:03:51.054Z,96548.73
2023-03-25T20:06:22.355Z,96550.30
2023-03-25T20:08:52.331Z,96557.13
2023-03-25T20:11:21.150Z,96562.29
2023-03-25T20:13:49.561Z,96560.48
2023-03-25T20:16:17.837Z,96566.00
2023-03-25T20:18:46.292Z,96571.27
2023-03-25T20:21:14.530Z,96577.98
2023-03-25T20:23:45.490Z,96576.08
2023-03-25T20:26:13.466Z,96555.65
2023-03-25T20:28:41.555Z,96577.55
2023-03-25T20:31:17.831Z,96580.02
2023-03-25T20:33:49.506Z,96571.86
2023-03-25T20:36:19.152Z,96570.73
2023-03-25T20:38:56.655Z,96564.72
2023-03-25T20:41:19.110Z,96564.72
2023-03-25T20:43:47.039Z,96561.22
2023-03-25T20:46:15.794Z,96562.24
2023-03-25T20:48:43.859Z,96555.32
2023-03-25T20:51:11.794Z,96555.75
2023-03-25T20:53:42.867Z,96552.95
2023-03-25T20:56:11.318Z,96552.05
2023-03-25T20:58:39.166Z,96556.53
2023-03-25T21:01:07.413Z,96559.11
2023-03-25T21:03:35.346Z,96555.30
2023-03-25T21:06:13.486Z,96551.27
2023-03-25T21:08:33.886Z,96561.02
2023-03-25T21:11:02.220Z,96561.44
2023-03-25T21:13:32.201Z,96556.53
2023-03-25T21:16:01.701Z,96560.12
2023-03-25T21:18:29.444Z,96558.98
2023-03-25T21:20:59.968Z,96567.39
2023-03-25T21:23:31.446Z,96557.22
2023-03-25T21:26:06.941Z,96550.94
2023-03-25T21:28:36.772Z,96552.63
2023-03-25T21:31:15.642Z,96548.82
2023-03-25T21:33:45.594Z,96552.06
2023-03-25T21:36:16.153Z,96546.91
2023-03-25T21:38:44.399Z,96543.91
2023-03-25T21:41:12.243Z,96541.23
2023-03-25T21:43:41.709Z,96543.67
2023-03-25T21:46:10.685Z,96544.12
2023-03-25T21:48:39.526Z,96541.67
2023-03-25T21:51:09.912Z,96544.35
2023-03-25T21:53:39.552Z,96540.88
2023-03-25T21:56:09.655Z,96542.67
2023-03-25T21:58:39.530Z,96552.52
2023-03-25T22:01:15.479Z,96549.05
2023-03-25T22:03:47.230Z,96544.35
2023-03-25T22:06:18.834Z,96551.38
2023-03-25T22:08:46.431Z,96546.45
2023-03-25T22:11:22.056Z,96552.38
2023-03-25T22:13:51.337Z,96550.16
2023-03-25T22:16:21.186Z,96548.82
2023-03-25T22:18:49.956Z,96545.47
2023-03-25T22:21:23.364Z,96550.15
2023-03-25T22:23:55.013Z,96552.37
2023-03-25T22:26:23.801Z,96554.62
2023-03-25T22:28:58.141Z,96546.98
2023-03-25T22:31:30.948Z,96540.17
2023-03-25T22:34:03.920Z,96544.20
2023-03-25T22:36:34.187Z,96541.91
2023-03-25T22:39:02.466Z,96541.89
2023-03-25T22:41:30.684Z,96547.02
2023-03-25T22:43:59.359Z,96540.28
2023-03-25T22:46:27.213Z,96541.50
2023-03-25T22:48:55.238Z,96538.27
2023-03-25T22:51:23.141Z,96541.97
2023-03-25T22:53:50.910Z,96546.80
2023-03-25T22:56:19.729Z,96545.02
2023-03-25T22:58:47.339Z,96543.23
2023-03-25T23:01:23.315Z,96542.23
2023-03-25T23:03:53.002Z,96539.35
2023-03-25T23:06:21.832Z,96538.16
2023-03-25T23:08:51.538Z,96541.39
2023-03-25T23:11:23.465Z,96541.51
2023-03-25T23:13:55.744Z,96544.30
2023-03-25T23:16:27.793Z,96543.89
2023-03-25T23:18:56.022Z,96541.89
2023-03-25T23:21:27.551Z,96537.17
2023-03-25T23:23:59.013Z,96545.47
2023-03-25T23:26:38.382Z,96539.75
2023-03-25T23:29:10.547Z,96546.36
2023-03-25T23:31:41.764Z,96555.64
2023-03-25T23:34:13.960Z,96549.93
2023-03-25T23:36:42.900Z,96553.08
2023-03-25T23:39:17.853Z,96554.73
2023-03-25T23:41:45.668Z,96554.17
2023-03-25T23:44:13.367Z,96560.00
2023-03-25T23:46:41.940Z,96563.11
2023-03-25T23:49:10.602Z,96557.43
2023-03-25T23:51:41.067Z,96559.33
2023-03-25T23:54:12.902Z,96553.51
2023-03-25T23:56:41.758Z,96558.75
2023-03-25T23:59:11.529Z,96555.74
